Vb Dalia — CNA4275 — position and weather

sailwx.info

Track history (hours):
 
Tides and Currents Weather Stations Pressure Air Temp Water Temp Dewpoint Dewpoint Depression Visibility Wind Speed Wind Dir Waves Ship Positions

Vb Dalia

Last reported at 2017-Nov-07 17:26 UTC. Time now 2017-Nov-17 17:44 UTC.
Position N 35°53' W 005°30'.
Warning: this ship's position is 10 days out of date.

Length 28 m; draft 5 m.

Type: Tug. MMSI: 242904000.

Date/timePositionNaut miles runAvg speedWind from/ knotsBaromVisibWave heightAir tempDewpointWater temp
2017-Nov-07 17:26N 35°53' W 005°30'0 0.3
2017-Nov-07 16:55N 35°53' W 005°30'0 0.6
2017-Nov-07 16:28N 35°54' W 005°30'0 1.0
2017-Nov-07 16:01N 35°54' W 005°29'0 0.0
2017-Nov-07 15:31N 35°54' W 005°29'2 2.9
2017-Nov-07 14:51N 35°53' W 005°31'0 0.4
2017-Nov-07 14:30N 35°53' W 005°31'2 3.8
2017-Nov-07 14:01N 35°54' W 005°29'0 0.0
2017-Nov-07 13:30N 35°54' W 005°29'0 0.0
2017-Nov-07 13:01N 35°54' W 005°29'0 0.0
2017-Nov-07 12:30N 35°54' W 005°29'0 0.0
2017-Nov-07 12:00N 35°54' W 005°29'0 0.0
2017-Nov-07 11:31N 35°54' W 005°29'0 0.0
2017-Nov-07 11:01N 35°54' W 005°29'0 0.0
2017-Nov-07 10:31N 35°54' W 005°29'3 1.7
2017-Nov-07 08:32N 35°52' W 005°33'113.7
2017-Nov-07 08:28N 35°52' W 005°34'1 2.0
2017-Nov-07 07:59N 35°51' W 005°34'  
Track history (hours):
 
Tides and Currents Weather Stations Pressure Air Temp Water Temp Dewpoint Dewpoint Depression Visibility Wind Speed Wind Dir Waves Ship Positions

Vb Dalia

Last reported at 2017-Nov-07 17:26 UTC. Time now 2017-Nov-17 17:44 UTC.
Position N 35°53' W 005°30'.
Warning: this ship's position is 10 days out of date.

Length 28 m; draft 5 m.

Type: Tug. MMSI: 242904000.

Date/timePositionNaut miles runAvg speedWind from/ knotsBaromVisibWave heightAir tempDewpointWater temp
2017-Nov-07 17:26N 35°53' W 005°30'0 0.3
2017-Nov-07 16:55N 35°53' W 005°30'0 0.6
2017-Nov-07 16:28N 35°54' W 005°30'0 1.0
2017-Nov-07 16:01N 35°54' W 005°29'0 0.0
2017-Nov-07 15:31N 35°54' W 005°29'2 2.9
2017-Nov-07 14:51N 35°53' W 005°31'0 0.4
2017-Nov-07 14:30N 35°53' W 005°31'2 3.8
2017-Nov-07 14:01N 35°54' W 005°29'0 0.0
2017-Nov-07 13:30N 35°54' W 005°29'0 0.0
2017-Nov-07 13:01N 35°54' W 005°29'0 0.0
2017-Nov-07 12:30N 35°54' W 005°29'0 0.0
2017-Nov-07 12:00N 35°54' W 005°29'0 0.0
2017-Nov-07 11:31N 35°54' W 005°29'0 0.0
2017-Nov-07 11:01N 35°54' W 005°29'0 0.0
2017-Nov-07 10:31N 35°54' W 005°29'3 1.7
2017-Nov-07 08:32N 35°52' W 005°33'113.7
2017-Nov-07 08:28N 35°52' W 005°34'1 2.0
2017-Nov-07 07:59N 35°51' W 005°34'  

Dump ship's entire track history